Time;durP1;ratioP1;P1;durP2;ratioP2;P2;SDS_P1;SDS_P2;PMS_P1;PMS_P2;Temp;Humidity;BMP_temperature;BMP_pressure;BME280_temperature;BME280_humidity;BME280_pressure;Samples;Min_cycle;Max_cycle;Signal;HPM_P1;HPM_P2
2023/12/07 00:00:53;;;;;;;70.70;63.20;;;;;;;-2.73;100.00;97751.93;109603;1286;22229;-82
2023/12/07 00:03:31;;;;;;;70.20;63.00;;;;;;;-2.70;100.00;97757.86;109597;1290;22643;-81
2023/12/07 00:05:59;;;;;;;71.60;63.90;;;;;;;-2.64;100.00;97757.32;109632;1287;22256;-83
2023/12/07 00:08:27;;;;;;;70.90;63.50;;;;;;;-2.59;100.00;97759.71;109585;1290;22326;-82
2023/12/07 00:10:55;;;;;;;73.90;66.30;;;;;;;-2.57;100.00;97756.68;109602;1276;22744;-82
2023/12/07 00:13:23;;;;;;;72.80;65.50;;;;;;;-2.60;100.00;97757.29;109570;1290;23143;-83
2023/12/07 00:15:51;;;;;;;71.00;63.60;;;;;;;-2.63;100.00;97756.91;109605;1290;22206;-83
2023/12/07 00:22:41;;;;;;;70.00;62.70;;;;;;;-2.58;99.90;97763.27;109573;1290;22371;-83
2023/12/07 00:25:09;;;;;;;72.50;65.00;;;;;;;-2.55;100.00;97768.89;109571;1290;22371;-86
2023/12/07 00:27:37;;;;;;;74.60;66.90;;;;;;;-2.57;100.00;97771.14;109577;1283;22323;-86
2023/12/07 00:30:06;;;;;;;74.90;66.70;;;;;;;-2.61;99.95;97774.83;109588;1282;22360;-84
2023/12/07 00:32:34;;;;;;;76.20;68.00;;;;;;;-2.63;100.00;97774.60;109588;1290;22276;-85
2023/12/07 00:35:03;;;;;;;82.90;72.50;;;;;;;-2.66;100.00;97778.40;109594;1283;22223;-86
2023/12/07 00:37:31;;;;;;;77.00;68.70;;;;;;;-2.66;99.96;97779.25;109576;1283;22240;-86
2023/12/07 00:39:59;;;;;;;77.20;68.80;;;;;;;-2.64;100.00;97781.91;109589;1290;22221;-86
2023/12/07 00:42:28;;;;;;;86.20;71.80;;;;;;;-2.60;99.98;97781.06;109583;1283;22295;-86
2023/12/07 00:44:57;;;;;;;82.30;71.50;;;;;;;-2.59;99.92;97781.30;109484;1284;22219;-84
2023/12/07 00:47:27;;;;;;;83.90;72.90;;;;;;;-2.61;99.99;97781.36;109592;1279;22312;-85
2023/12/07 00:49:55;;;;;;;87.30;73.00;;;;;;;-2.62;99.90;97779.27;109600;1290;22685;-83
2023/12/07 00:52:23;;;;;;;92.70;75.80;;;;;;;-2.65;99.92;97779.09;109599;1276;22900;-84
2023/12/07 00:54:52;;;;;;;82.80;72.70;;;;;;;-2.67;99.97;97778.25;109589;1290;22229;-85
2023/12/07 00:57:20;;;;;;;87.90;66.90;;;;;;;-2.70;99.97;97779.61;109595;1282;22298;-84
2023/12/07 00:59:48;;;;;;;86.00;68.40;;;;;;;-2.67;99.95;97782.50;109610;1290;22220;-86
2023/12/07 01:02:16;;;;;;;89.60;73.90;;;;;;;-2.63;99.95;97782.55;109585;1290;22246;-85
2023/12/07 01:04:44;;;;;;;93.70;77.80;;;;;;;-2.61;99.98;97781.93;109532;1289;22262;-85
2023/12/07 01:07:12;;;;;;;91.20;74.10;;;;;;;-2.58;100.00;97780.71;109584;1290;22252;-85
2023/12/07 01:09:40;;;;;;;93.00;75.20;;;;;;;-2.59;99.98;97781.25;109627;1283;22109;-85
2023/12/07 01:12:09;;;;;;;92.00;74.80;;;;;;;-2.61;100.00;97781.93;109661;1290;22139;-82
2023/12/07 01:14:37;;;;;;;91.10;75.40;;;;;;;-2.65;99.99;97782.20;109623;1276;22864;-84
2023/12/07 01:17:05;;;;;;;85.70;71.70;;;;;;;-2.66;100.00;97783.02;109697;1282;22205;-85
2023/12/07 01:19:34;;;;;;;95.40;73.90;;;;;;;-2.66;99.93;97782.78;109493;1290;199622;-85
2023/12/07 01:22:02;;;;;;;103.20;77.60;;;;;;;-2.63;99.94;97784.14;109617;1290;22229;-84
2023/12/07 01:24:30;;;;;;;89.40;75.80;;;;;;;-2.58;100.00;97782.83;109605;1286;22707;-84
2023/12/07 01:26:59;;;;;;;98.80;78.00;;;;;;;-2.59;100.00;97779.46;109598;1290;22209;-85
2023/12/07 01:29:27;;;;;;;94.00;74.60;;;;;;;-2.61;99.98;97779.00;109581;1283;22303;-84
2023/12/07 01:31:55;;;;;;;95.90;75.90;;;;;;;-2.66;99.99;97778.31;109610;1283;22971;-84
2023/12/07 01:34:23;;;;;;;96.60;73.20;;;;;;;-2.70;100.00;97780.50;109584;1286;22170;-84
2023/12/07 01:36:51;;;;;;;87.40;73.00;;;;;;;-2.70;100.00;97777.42;109650;1290;23000;-83
2023/12/07 01:39:19;;;;;;;88.80;71.60;;;;;;;-2.68;99.91;97775.30;109648;1283;22359;-83
2023/12/07 01:41:47;;;;;;;79.20;70.30;;;;;;;-2.64;100.00;97778.52;109675;1290;22277;-86
2023/12/07 01:44:15;;;;;;;86.10;73.30;;;;;;;-2.61;100.00;97778.61;109648;1290;22194;-84
2023/12/07 01:46:43;;;;;;;84.50;71.10;;;;;;;-2.62;99.99;97777.31;109654;1290;22263;-84
2023/12/07 01:49:11;;;;;;;83.30;71.60;;;;;;;-2.64;100.00;97778.38;109596;1282;22876;-84
2023/12/07 01:51:39;;;;;;;93.10;74.70;;;;;;;-2.65;100.00;97776.81;109643;1290;22266;-85
2023/12/07 01:54:08;;;;;;;85.70;72.80;;;;;;;-2.67;100.00;97775.67;109622;1290;22241;-85
2023/12/07 01:56:37;;;;;;;88.10;72.80;;;;;;;-2.67;100.00;97773.74;109615;1290;22137;-86
2023/12/07 01:59:05;;;;;;;76.80;68.80;;;;;;;-2.66;99.98;97774.94;109451;1283;23090;-84
2023/12/07 02:01:33;;;;;;;81.70;71.20;;;;;;;-2.63;100.00;97776.45;109595;1276;22240;-86
2023/12/07 02:04:01;;;;;;;82.50;72.70;;;;;;;-2.60;100.00;97777.33;109611;1283;22243;-85
2023/12/07 02:06:30;;;;;;;86.80;74.10;;;;;;;-2.62;100.00;97775.52;109593;1290;22211;-85
2023/12/07 02:08:58;;;;;;;101.90;74.70;;;;;;;-2.63;100.00;97776.59;109639;1290;22142;-85
2023/12/07 02:11:26;;;;;;;95.00;76.10;;;;;;;-2.67;100.00;97776.05;109622;1290;22266;-83
2023/12/07 02:13:57;;;;;;;92.00;74.10;;;;;;;-2.67;100.00;97776.30;109579;1282;22197;-85
2023/12/07 02:16:48;;;;;;;93.60;73.50;;;;;;;-2.68;100.00;97777.23;109683;1290;22227;-84
2023/12/07 02:19:31;;;;;;;79.20;66.90;;;;;;;-2.67;100.00;97781.17;109650;1286;22406;-84
2023/12/07 02:22:05;;;;;;;78.30;69.20;;;;;;;-2.64;100.00;97783.22;109636;1286;22211;-84
2023/12/07 02:24:33;;;;;;;82.60;73.00;;;;;;;-2.64;100.00;97782.45;109633;1290;22289;-85
2023/12/07 02:27:01;;;;;;;84.30;72.80;;;;;;;-2.64;100.00;97786.23;109459;1280;22218;-84
2023/12/07 02:29:29;;;;;;;88.90;74.90;;;;;;;-2.65;100.00;97785.92;109654;1286;22201;-85
2023/12/07 02:31:57;;;;;;;92.20;73.80;;;;;;;-2.66;100.00;97787.32;109475;1290;22156;-85
2023/12/07 02:34:25;;;;;;;80.10;70.30;;;;;;;-2.65;100.00;97790.56;109610;1274;22564;-85
2023/12/07 02:36:58;;;;;;;76.30;68.20;;;;;;;-2.61;100.00;97794.44;109349;1290;22171;-84
2023/12/07 02:39:30;;;;;;;78.00;68.90;;;;;;;-2.59;100.00;97791.24;109669;1282;22195;-82
2023/12/07 02:41:59;;;;;;;82.30;69.50;;;;;;;-2.59;100.00;97790.18;109625;1290;22350;-86
2023/12/07 02:44:27;;;;;;;85.40;71.90;;;;;;;-2.56;100.00;97797.91;109599;1277;22500;-86
2023/12/07 02:46:55;;;;;;;94.70;75.80;;;;;;;-2.57;100.00;97802.27;109608;1290;22340;-86
2023/12/07 02:49:23;;;;;;;89.60;75.50;;;;;;;-2.60;100.00;97804.76;109666;1290;22812;-85
2023/12/07 02:51:51;;;;;;;91.80;73.20;;;;;;;-2.64;100.00;97808.61;109669;1290;22273;-83
2023/12/07 02:54:19;;;;;;;94.40;73.10;;;;;;;-2.64;100.00;97810.28;109638;1283;22238;-84
2023/12/07 02:56:48;;;;;;;86.30;71.50;;;;;;;-2.63;100.00;97812.94;109634;1289;22187;-85
2023/12/07 02:59:16;;;;;;;82.90;71.40;;;;;;;-2.60;100.00;97811.90;109394;1290;22788;-85
2023/12/07 03:01:44;;;;;;;84.20;71.40;;;;;;;-2.51;100.00;97811.58;109610;1290;22131;-85
2023/12/07 03:04:12;;;;;;;94.60;76.20;;;;;;;-2.46;100.00;97808.83;109427;1286;22167;-85
2023/12/07 03:06:40;;;;;;;82.80;73.80;;;;;;;-2.44;100.00;97808.32;109446;1285;22219;-84
2023/12/07 03:09:08;;;;;;;77.90;69.40;;;;;;;-2.43;100.00;97807.50;109387;1290;22226;-82
2023/12/07 03:11:36;;;;;;;80.90;68.10;;;;;;;-2.45;100.00;97808.80;109600;1283;23136;-83
2023/12/07 03:14:04;;;;;;;71.70;63.80;;;;;;;-2.42;100.00;97810.28;109623;1290;22896;-83
2023/12/07 03:16:33;;;;;;;68.80;61.40;;;;;;;-2.37;100.00;97813.60;109602;1290;22221;-80
2023/12/07 03:19:01;;;;;;;68.80;61.60;;;;;;;-2.33;100.00;97818.13;109591;1290;22219;-85
2023/12/07 03:21:30;;;;;;;67.90;60.70;;;;;;;-2.29;100.00;97821.60;109617;1286;22321;-84
2023/12/07 03:23:58;;;;;;;65.10;58.00;;;;;;;-2.30;100.00;97824.21;109596;1290;23052;-84
2023/12/07 03:26:26;;;;;;;69.20;61.10;;;;;;;-2.36;100.00;97822.73;109593;1283;23108;-83
2023/12/07 03:28:54;;;;;;;66.90;59.10;;;;;;;-2.42;100.00;97824.05;109550;1290;22217;-84
2023/12/07 03:31:22;;;;;;;67.60;60.30;;;;;;;-2.48;100.00;97824.34;109609;1289;22241;-85
2023/12/07 03:33:50;;;;;;;60.20;53.70;;;;;;;-2.53;100.00;97825.45;109626;1286;22256;-84
2023/12/07 03:36:18;;;;;;;57.90;51.70;;;;;;;-2.58;100.00;97826.70;109607;1290;22246;-85
2023/12/07 03:38:46;;;;;;;59.80;53.40;;;;;;;-2.61;100.00;97820.60;109641;1290;22151;-85
2023/12/07 03:41:15;;;;;;;62.60;55.90;;;;;;;-2.61;100.00;97822.14;109611;1288;22151;-84
2023/12/07 03:43:43;;;;;;;69.40;62.00;;;;;;;-2.57;100.00;97820.80;109575;1290;22991;-83
2023/12/07 03:46:36;;;;;;;66.70;59.80;;;;;;;-2.52;100.00;97820.00;109583;1286;22227;-84
2023/12/07 03:49:04;;;;;;;71.50;63.80;;;;;;;-2.55;100.00;97827.61;109574;1290;23178;-84
2023/12/07 03:51:32;;;;;;;77.70;66.60;;;;;;;-2.60;100.00;97828.88;109603;1286;22427;-85
2023/12/07 03:54:00;;;;;;;69.60;62.30;;;;;;;-2.65;100.00;97826.52;109591;1290;22290;-83
2023/12/07 03:56:33;;;;;;;69.50;61.80;;;;;;;-2.65;100.00;97829.44;109590;1283;22388;-83
2023/12/07 03:59:01;;;;;;;73.00;63.30;;;;;;;-2.61;100.00;97825.52;109624;1277;22242;-84
2023/12/07 04:01:30;;;;;;;98.30;69.10;;;;;;;-2.57;100.00;97830.06;109623;1279;22184;-84
2023/12/07 04:04:00;;;;;;;109.00;73.50;;;;;;;-2.56;100.00;97832.48;109602;1283;22219;-83
2023/12/07 04:06:28;;;;;;;113.30;75.20;;;;;;;-2.58;100.00;97832.57;109620;1277;22231;-84
2023/12/07 04:08:56;;;;;;;113.00;74.50;;;;;;;-2.61;100.00;97832.64;109617;1290;22134;-86
2023/12/07 04:11:24;;;;;;;96.80;70.70;;;;;;;-2.64;100.00;97832.75;109605;1283;22103;-85
2023/12/07 04:13:52;;;;;;;74.60;63.10;;;;;;;-2.64;100.00;97829.48;109622;1290;22857;-85
2023/12/07 04:16:21;;;;;;;76.30;61.30;;;;;;;-2.63;100.00;97831.09;109597;1290;22385;-84
2023/12/07 04:18:49;;;;;;;68.50;61.10;;;;;;;-2.61;100.00;97837.08;109462;1284;22219;-84
2023/12/07 04:21:18;;;;;;;66.00;59.20;;;;;;;-2.56;100.00;97841.70;109633;1290;22119;-83
2023/12/07 04:23:46;;;;;;;66.50;59.50;;;;;;;-2.54;100.00;97844.68;109616;1290;22922;-85
2023/12/07 04:26:15;;;;;;;67.10;59.10;;;;;;;-2.53;100.00;97843.77;109626;1283;23065;-84
2023/12/07 04:28:43;;;;;;;68.20;61.00;;;;;;;-2.52;100.00;97842.52;109559;1276;23049;-83
2023/12/07 04:31:11;;;;;;;65.30;57.30;;;;;;;-2.52;100.00;97847.27;109602;1282;22196;-85
2023/12/07 04:33:39;;;;;;;63.40;56.60;;;;;;;-2.54;100.00;97850.45;109585;1286;22988;-85
2023/12/07 04:36:08;;;;;;;64.30;57.30;;;;;;;-2.54;100.00;97853.60;109607;1274;22403;-84
2023/12/07 04:38:35;;;;;;;62.60;55.70;;;;;;;-2.55;100.00;97857.27;109601;1290;22911;-84
2023/12/07 04:41:03;;;;;;;66.00;58.90;;;;;;;-2.53;100.00;97855.84;109603;1282;22298;-85
2023/12/07 04:43:31;;;;;;;77.90;68.50;;;;;;;-2.53;100.00;97851.21;109617;1283;22234;-85
2023/12/07 04:45:59;;;;;;;76.40;65.90;;;;;;;-2.55;100.00;97850.77;109597;1282;22184;-84
2023/12/07 04:48:28;;;;;;;76.50;67.60;;;;;;;-2.59;100.00;97849.27;109616;1283;23018;-83
2023/12/07 04:50:56;;;;;;;79.50;66.50;;;;;;;-2.60;100.00;97853.63;109711;1282;22238;-85
2023/12/07 04:53:24;;;;;;;86.00;67.40;;;;;;;-2.60;100.00;97856.83;109720;1283;22278;-85
2023/12/07 04:55:52;;;;;;;79.60;63.50;;;;;;;-2.56;100.00;97858.06;109599;1289;22134;-85
2023/12/07 04:58:20;;;;;;;82.90;67.90;;;;;;;-2.53;100.00;97862.02;109595;1278;22197;-84
2023/12/07 05:00:48;;;;;;;89.40;71.20;;;;;;;-2.56;100.00;97859.92;109602;1286;22211;-83
2023/12/07 05:03:16;;;;;;;99.90;73.30;;;;;;;-2.59;100.00;97858.64;109622;1283;22231;-85
2023/12/07 05:05:45;;;;;;;95.70;71.90;;;;;;;-2.64;100.00;97859.70;109605;1283;22209;-85
2023/12/07 05:08:13;;;;;;;99.90;73.50;;;;;;;-2.68;100.00;97860.02;109614;1290;22132;-85
2023/12/07 05:10:41;;;;;;;107.30;71.50;;;;;;;-2.67;100.00;97862.61;109589;1290;22238;-84
2023/12/07 05:13:09;;;;;;;95.10;70.20;;;;;;;-2.68;100.00;97863.48;109614;1276;22331;-84
2023/12/07 05:15:37;;;;;;;82.00;65.30;;;;;;;-2.68;100.00;97866.19;109613;1278;22186;-84
2023/12/07 05:18:05;;;;;;;88.60;71.90;;;;;;;-2.69;100.00;97861.96;109649;1283;22387;-85
2023/12/07 05:20:34;;;;;;;115.10;78.80;;;;;;;-2.69;100.00;97866.40;109788;1290;22190;-84
2023/12/07 05:23:06;;;;;;;119.70;81.10;;;;;;;-2.75;100.00;97870.48;109777;1283;23060;-84
2023/12/07 05:25:34;;;;;;;116.90;79.60;;;;;;;-2.81;100.00;97873.29;109777;1289;22340;-84
2023/12/07 05:28:54;;;;;;;94.80;72.40;;;;;;;-2.79;100.00;97882.33;109702;1289;22291;-84
2023/12/07 05:31:22;;;;;;;105.40;74.20;;;;;;;-2.78;100.00;97890.48;109710;1289;22118;-83
2023/12/07 05:33:50;;;;;;;119.20;80.80;;;;;;;-2.78;100.00;97893.14;109648;1289;22196;-85
2023/12/07 05:36:18;;;;;;;123.10;82.10;;;;;;;-2.76;100.00;97895.62;109640;1289;22354;-83
2023/12/07 05:38:46;;;;;;;130.60;83.80;;;;;;;-2.77;100.00;97898.02;109478;1285;22240;-83
2023/12/07 05:41:15;;;;;;;125.50;78.70;;;;;;;-2.81;100.00;97902.73;109600;1282;22861;-85
2023/12/07 05:43:43;;;;;;;107.90;72.50;;;;;;;-2.81;100.00;97905.06;109461;1283;22128;-86
2023/12/07 05:46:11;;;;;;;79.30;64.30;;;;;;;-2.78;100.00;97902.36;109595;1283;22272;-86
2023/12/07 05:48:39;;;;;;;83.50;67.20;;;;;;;-2.73;100.00;97904.36;109603;1283;24075;-85
2023/12/07 05:51:16;;;;;;;75.10;62.40;;;;;;;-2.74;100.00;97903.11;109611;1278;22895;-84
2023/12/07 05:53:44;;;;;;;100.40;71.80;;;;;;;-2.77;100.00;97906.01;109579;1274;22360;-85
2023/12/07 05:56:17;;;;;;;87.70;66.70;;;;;;;-2.80;100.00;97908.83;109592;1289;22952;-85
2023/12/07 05:58:46;;;;;;;73.10;62.10;;;;;;;-2.79;100.00;97910.85;109617;1283;22328;-86
2023/12/07 06:01:17;;;;;;;77.60;64.70;;;;;;;-2.78;100.00;97916.40;109597;1280;22308;-88
2023/12/07 06:03:45;;;;;;;74.00;61.30;;;;;;;-2.77;100.00;97918.98;109754;1274;22180;-88
2023/12/07 06:06:13;;;;;;;77.30;62.70;;;;;;;-2.73;100.00;97920.39;109581;1274;22250;-86
2023/12/07 06:08:42;;;;;;;72.30;61.60;;;;;;;-2.68;100.00;97925.84;109605;1283;22217;-88
2023/12/07 06:11:10;;;;;;;80.40;65.20;;;;;;;-2.65;100.00;97927.04;109599;1283;22227;-88
2023/12/07 06:13:38;;;;;;;78.40;63.10;;;;;;;-2.67;100.00;97930.46;109564;1283;22275;-84
2023/12/07 06:16:06;;;;;;;78.70;61.80;;;;;;;-2.72;100.00;97931.19;109618;1283;22487;-88
2023/12/07 06:18:34;;;;;;;76.30;62.90;;;;;;;-2.76;100.00;97935.02;109624;1290;22139;-85
2023/12/07 06:21:03;;;;;;;76.60;62.30;;;;;;;-2.78;100.00;97937.85;109648;1290;22956;-87
2023/12/07 06:23:31;;;;;;;78.50;66.20;;;;;;;-2.81;100.00;97935.33;109759;1283;22241;-87
2023/12/07 06:25:59;;;;;;;84.90;68.40;;;;;;;-2.89;100.00;97936.21;109632;1290;22250;-86
2023/12/07 06:28:27;;;;;;;90.10;67.90;;;;;;;-2.90;100.00;97939.51;109623;1290;22202;-86
2023/12/07 06:30:57;;;;;;;85.80;66.20;;;;;;;-2.91;100.00;97943.05;109613;1290;22204;-84
2023/12/07 06:33:25;;;;;;;81.50;62.80;;;;;;;-2.89;100.00;97943.08;109582;1286;22223;-85
2023/12/07 06:35:53;;;;;;;75.80;63.60;;;;;;;-2.83;100.00;97946.58;109617;1283;22199;-85
2023/12/07 06:38:21;;;;;;;78.00;65.80;;;;;;;-2.81;100.00;97949.77;109575;1283;22837;-87
2023/12/07 06:40:50;;;;;;;81.80;64.60;;;;;;;-2.84;100.00;97951.28;109630;1290;22138;-85
2023/12/07 06:43:18;;;;;;;85.10;65.30;;;;;;;-2.90;100.00;97952.52;109646;1290;22241;-86
2023/12/07 06:45:46;;;;;;;74.30;63.80;;;;;;;-2.94;100.00;97951.38;109675;1277;22396;-85
2023/12/07 06:48:14;;;;;;;77.20;63.50;;;;;;;-2.93;100.00;97957.05;109559;1290;22917;-87
2023/12/07 06:50:42;;;;;;;80.40;65.50;;;;;;;-2.93;100.00;97959.32;109618;1283;22907;-86
2023/12/07 06:53:10;;;;;;;90.90;68.80;;;;;;;-2.93;100.00;97961.64;109642;1278;22134;-85
2023/12/07 06:55:38;;;;;;;73.40;63.30;;;;;;;-2.93;100.00;97965.54;109619;1283;22119;-84
2023/12/07 06:58:13;;;;;;;85.40;69.00;;;;;;;-2.91;100.00;97968.20;109607;1286;22267;-83
2023/12/07 07:00:41;;;;;;;86.30;65.50;;;;;;;-2.90;100.00;97968.60;109579;1282;22208;-82
2023/12/07 07:03:09;;;;;;;75.60;63.60;;;;;;;-2.88;100.00;97968.84;109598;1286;22202;-81
2023/12/07 07:05:37;;;;;;;83.70;68.40;;;;;;;-2.83;100.00;97978.38;109584;1283;22218;-82
2023/12/07 07:08:07;;;;;;;94.80;68.90;;;;;;;-2.85;100.00;97981.89;109595;1283;22217;-82
2023/12/07 07:10:36;;;;;;;85.80;66.40;;;;;;;-2.85;100.00;97976.12;109560;1286;22208;-83
2023/12/07 07:13:04;;;;;;;77.90;64.50;;;;;;;-2.82;100.00;97980.44;109625;1282;23308;-82
2023/12/07 07:15:33;;;;;;;74.80;65.20;;;;;;;-2.81;100.00;97977.72;109605;1280;22257;-82
2023/12/07 07:18:01;;;;;;;73.30;60.40;;;;;;;-2.79;100.00;97979.65;109589;1283;22970;-81
2023/12/07 07:20:30;;;;;;;79.40;67.10;;;;;;;-2.76;100.00;97979.64;109592;1283;22218;-82
2023/12/07 07:22:58;;;;;;;92.90;69.90;;;;;;;-2.72;100.00;97986.11;109603;1274;22123;-83
2023/12/07 07:25:26;;;;;;;96.10;69.00;;;;;;;-2.70;100.00;97987.61;109526;1290;22201;-82
2023/12/07 07:27:54;;;;;;;86.40;66.40;;;;;;;-2.68;100.00;97988.20;109571;1283;23106;-81
2023/12/07 07:30:22;;;;;;;75.10;63.30;;;;;;;-2.63;100.00;97990.25;109582;1282;22252;-81
2023/12/07 07:32:50;;;;;;;75.20;64.20;;;;;;;-2.60;100.00;97990.96;109547;1279;23241;-81
2023/12/07 07:35:18;;;;;;;88.70;68.70;;;;;;;-2.58;100.00;97991.55;109563;1277;22871;-82
2023/12/07 07:37:46;;;;;;;85.00;70.10;;;;;;;-2.56;100.00;97997.15;109567;1280;22186;-83
2023/12/07 07:40:15;;;;;;;98.40;69.20;;;;;;;-2.57;100.00;97995.00;109650;1290;22268;-82
2023/12/07 07:42:43;;;;;;;81.80;65.80;;;;;;;-2.55;100.00;97998.63;109574;1274;22372;-83
2023/12/07 07:45:11;;;;;;;89.10;67.30;;;;;;;-2.49;100.00;97995.31;109579;1280;22137;-83
2023/12/07 07:47:39;;;;;;;97.40;73.10;;;;;;;-2.39;100.00;97998.14;109584;1274;22432;-85
2023/12/07 07:50:08;;;;;;;109.70;78.80;;;;;;;-2.33;100.00;97999.20;109373;1283;22224;-82
2023/12/07 07:52:36;;;;;;;100.60;79.20;;;;;;;-2.30;100.00;98003.72;109571;1277;22243;-83
2023/12/07 07:55:04;;;;;;;108.80;76.50;;;;;;;-2.27;100.00;98006.34;109535;1284;22328;-83
2023/12/07 07:57:33;;;;;;;93.60;72.00;;;;;;;-2.26;100.00;98006.87;109591;1283;22282;-80
2023/12/07 08:00:01;;;;;;;85.60;70.20;;;;;;;-2.26;100.00;98011.66;109533;1290;22208;-84
2023/12/07 08:02:31;;;;;;;84.90;70.30;;;;;;;-2.27;100.00;98010.23;109553;1286;22244;-84
2023/12/07 08:04:59;;;;;;;82.30;68.00;;;;;;;-2.20;100.00;98013.56;109555;1290;22233;-83
2023/12/07 08:07:27;;;;;;;83.60;69.00;;;;;;;-2.11;100.00;98010.34;109665;1270;22127;-83
2023/12/07 08:10:22;;;;;;;95.10;70.90;;;;;;;-1.97;100.00;98012.88;109621;1284;22217;-83
2023/12/07 08:12:50;;;;;;;114.30;74.00;;;;;;;-1.93;100.00;98014.54;109611;1290;22150;-82
2023/12/07 08:15:18;;;;;;;88.70;68.70;;;;;;;-1.91;100.00;98013.10;109556;1282;22379;-84
2023/12/07 08:17:46;;;;;;;84.70;71.30;;;;;;;-1.84;100.00;98015.92;109515;1283;22965;-83
2023/12/07 08:20:14;;;;;;;85.70;69.90;;;;;;;-1.72;100.00;98011.32;109568;1290;22236;-83
2023/12/07 08:22:43;;;;;;;85.40;68.40;;;;;;;-1.56;100.00;98013.05;109578;1280;22120;-81
2023/12/07 08:25:11;;;;;;;94.80;72.70;;;;;;;-1.46;100.00;98010.02;109560;1274;23159;-83
2023/12/07 08:27:39;;;;;;;84.20;68.80;;;;;;;-1.49;100.00;98015.79;109592;1286;22813;-82
2023/12/07 08:30:09;;;;;;;89.40;71.60;;;;;;;-1.49;100.00;98020.17;109598;1283;22241;-84
2023/12/07 08:32:38;;;;;;;86.60;69.10;;;;;;;-1.45;100.00;98018.92;109581;1278;22221;-83
2023/12/07 08:35:15;;;;;;;99.60;73.30;;;;;;;-1.43;100.00;98020.41;109579;1287;22964;-83
2023/12/07 08:37:43;;;;;;;98.20;75.80;;;;;;;-1.48;100.00;98024.02;109532;1280;22341;-82
2023/12/07 08:40:11;;;;;;;95.80;75.00;;;;;;;-1.40;100.00;98024.11;109523;1283;22207;-81
2023/12/07 08:42:40;;;;;;;97.40;72.60;;;;;;;-1.31;100.00;98023.84;109534;1287;22309;-86
2023/12/07 08:45:08;;;;;;;88.60;69.20;;;;;;;-1.17;100.00;98024.41;109478;1282;22958;-80
2023/12/07 08:47:36;;;;;;;84.20;69.10;;;;;;;-1.07;100.00;98029.95;109595;1290;22144;-78
2023/12/07 08:50:07;;;;;;;93.10;76.20;;;;;;;-0.98;100.00;98030.09;109582;1289;22122;-78
2023/12/07 08:52:35;;;;;;;94.10;72.30;;;;;;;-0.89;100.00;98036.10;109573;1283;22222;-79
2023/12/07 08:55:15;;;;;;;101.60;76.60;;;;;;;-0.85;100.00;98038.70;109562;1290;22343;-79
2023/12/07 08:57:44;;;;;;;124.40;84.90;;;;;;;-0.79;100.00;98038.23;109572;1283;22254;-78
2023/12/07 09:00:15;;;;;;;136.90;89.20;;;;;;;-0.77;100.00;98044.06;109558;1285;22174;-78
2023/12/07 09:02:43;;;;;;;138.30;86.70;;;;;;;-0.76;100.00;98042.34;109547;1287;22225;-78
2023/12/07 09:05:15;;;;;;;122.70;80.80;;;;;;;-0.75;100.00;98047.57;109553;1290;22357;-80
2023/12/07 09:07:43;;;;;;;128.90;84.70;;;;;;;-0.76;100.00;98052.02;109581;1283;23297;-79
2023/12/07 09:10:12;;;;;;;135.50;89.00;;;;;;;-0.77;100.00;98054.16;109581;1270;22572;-80
2023/12/07 09:12:40;;;;;;;134.30;86.70;;;;;;;-0.77;100.00;98054.38;109554;1282;22228;-80
2023/12/07 09:15:09;;;;;;;133.20;87.10;;;;;;;-0.76;100.00;98060.70;109572;1287;22393;-79
2023/12/07 09:17:39;;;;;;;133.50;82.70;;;;;;;-0.79;100.00;98062.58;109515;1290;22956;-79
2023/12/07 09:20:12;;;;;;;122.90;78.40;;;;;;;-0.82;100.00;98067.24;109566;1277;22229;-80
2023/12/07 09:22:45;;;;;;;114.40;80.70;;;;;;;-0.84;100.00;98064.50;109476;1290;22195;-80
2023/12/07 09:25:17;;;;;;;110.20;76.40;;;;;;;-0.87;100.00;98066.84;109571;1286;22346;-81
2023/12/07 09:27:45;;;;;;;123.10;77.40;;;;;;;-0.88;100.00;98061.77;109565;1286;22791;-79
2023/12/07 09:30:14;;;;;;;110.90;78.50;;;;;;;-0.87;100.00;98060.06;109590;1286;22247;-79
2023/12/07 09:32:42;;;;;;;104.20;74.20;;;;;;;-0.83;100.00;98055.50;109562;1284;22853;-78
2023/12/07 09:35:18;;;;;;;94.00;70.60;;;;;;;-0.86;100.00;98055.23;109479;1283;22228;-80
2023/12/07 09:37:49;;;;;;;98.80;71.60;;;;;;;-0.89;100.00;98055.11;109543;1283;23050;-81
2023/12/07 09:40:22;;;;;;;88.90;70.90;;;;;;;-0.89;100.00;98053.36;109579;1290;22248;-80
2023/12/07 09:42:50;;;;;;;100.30;75.70;;;;;;;-0.81;100.00;98051.36;109542;1290;22299;-79
2023/12/07 09:45:19;;;;;;;92.30;71.40;;;;;;;-0.82;100.00;98053.20;109566;1290;22439;-81
2023/12/07 09:47:50;;;;;;;101.60;73.50;;;;;;;-0.78;100.00;98053.18;109564;1283;23058;-80
2023/12/07 09:50:21;;;;;;;93.40;69.60;;;;;;;-0.81;100.00;98048.83;109452;1290;22861;-80
2023/12/07 09:52:52;;;;;;;88.00;68.80;;;;;;;-0.80;100.00;98047.15;109473;1285;22279;-81
2023/12/07 09:55:35;;;;;;;93.50;72.30;;;;;;;-0.79;100.00;98049.30;109543;1282;22556;-81
2023/12/07 09:58:06;;;;;;;101.00;75.60;;;;;;;-0.77;100.00;98049.36;109582;1286;22302;-81
2023/12/07 10:00:36;;;;;;;105.20;76.00;;;;;;;-0.71;100.00;98054.23;109481;1290;22367;-80
2023/12/07 10:03:09;;;;;;;96.80;76.00;;;;;;;-0.64;100.00;98054.84;109463;1288;22243;-80
2023/12/07 10:05:57;;;;;;;104.70;74.90;;;;;;;-0.59;100.00;98056.54;109580;1290;22200;-80
2023/12/07 10:08:31;;;;;;;94.10;71.50;;;;;;;-0.53;100.00;98056.46;109563;1282;22352;-80
2023/12/07 10:11:11;;;;;;;88.40;71.80;;;;;;;-0.51;100.00;98049.35;109599;1283;22837;-80
2023/12/07 10:13:41;;;;;;;86.60;73.40;;;;;;;-0.52;100.00;98054.50;109628;1283;22208;-81
2023/12/07 10:16:12;;;;;;;92.90;71.30;;;;;;;-0.59;100.00;98055.52;109683;1289;22261;-80
2023/12/07 10:18:41;;;;;;;91.50;73.40;;;;;;;-0.70;100.00;98052.52;109628;1286;22209;-80
2023/12/07 10:21:12;;;;;;;83.70;69.00;;;;;;;-0.67;100.00;98050.54;109569;1290;22152;-79
2023/12/07 10:23:47;;;;;;;84.90;69.80;;;;;;;-0.56;100.00;98047.92;109577;1290;22248;-82
2023/12/07 10:26:20;;;;;;;86.50;71.00;;;;;;;-0.43;100.00;98049.05;109553;1284;22195;-82
2023/12/07 10:28:53;;;;;;;95.60;75.10;;;;;;;-0.40;100.00;98047.66;109546;1290;22294;-82
2023/12/07 10:31:23;;;;;;;102.30;76.90;;;;;;;-0.40;100.00;98047.71;109581;1283;22351;-82
2023/12/07 10:33:52;;;;;;;88.50;69.80;;;;;;;-0.38;100.00;98048.41;109571;1290;22248;-83
2023/12/07 10:36:21;;;;;;;74.90;65.40;;;;;;;-0.29;100.00;98044.14;109568;1286;22141;-82
2023/12/07 10:38:50;;;;;;;85.10;68.50;;;;;;;-0.30;100.00;98045.48;109564;1290;22972;-81
2023/12/07 10:41:21;;;;;;;90.00;69.00;;;;;;;-0.43;100.00;98045.14;109594;1286;22152;-80
2023/12/07 10:43:52;;;;;;;85.00;69.90;;;;;;;-0.50;100.00;98044.86;109493;1288;22815;-81
2023/12/07 10:46:21;;;;;;;88.50;67.50;;;;;;;-0.47;100.00;98042.98;109470;1286;22953;-83
2023/12/07 10:48:56;;;;;;;79.80;66.60;;;;;;;-0.46;100.00;98042.86;109571;1287;22209;-82
2023/12/07 10:51:41;;;;;;;81.70;69.60;;;;;;;-0.47;100.00;98036.27;109553;1290;22237;-82
2023/12/07 10:54:14;;;;;;;89.20;73.10;;;;;;;-0.50;100.00;98037.77;109541;1286;22214;-83
2023/12/07 10:56:48;;;;;;;87.00;69.30;;;;;;;-0.43;100.00;98037.27;109546;1283;22243;-82
2023/12/07 10:59:16;;;;;;;;;;;;;;;-0.42;100.00;98036.54;109495;1290;22428;-81
2023/12/07 11:01:57;;;;;;;87.90;69.30;;;;;;;-0.41;100.00;98034.08;109543;1290;22198;-79
2023/12/07 11:04:27;;;;;;;85.10;67.70;;;;;;;-0.34;100.00;98037.08;109531;1287;22879;-81
2023/12/07 11:06:59;;;;;;;87.70;72.40;;;;;;;-0.32;100.00;98033.22;109612;1290;22567;-82
2023/12/07 11:09:32;;;;;;;81.80;71.00;;;;;;;-0.32;100.00;98037.13;109621;1290;22390;-82
2023/12/07 11:12:11;;;;;;;78.00;68.20;;;;;;;-0.33;100.00;98040.27;109579;1283;22209;-83
2023/12/07 11:14:39;;;;;;;84.00;69.50;;;;;;;-0.28;100.00;98042.52;109612;1290;22270;-83
2023/12/07 11:17:08;;;;;;;72.20;64.40;;;;;;;-0.27;100.00;98043.61;109582;1286;22146;-82